sensor_id;sensor_type;location;lat;lon;timestamp;temperature;humidity
2647;DHT22;1333;50.958;6.770;2023-02-24T00:02:13;8.80;99.90
2647;DHT22;1333;50.958;6.770;2023-02-24T00:04:39;8.80;99.90
2647;DHT22;1333;50.958;6.770;2023-02-24T00:07:10;8.70;99.90
2647;DHT22;1333;50.958;6.770;2023-02-24T00:09:35;8.70;99.90
2647;DHT22;1333;50.958;6.770;2023-02-24T00:12:09;8.70;99.90
2647;DHT22;1333;50.958;6.770;2023-02-24T00:14:36;8.60;99.90
2647;DHT22;1333;50.958;6.770;2023-02-24T00:17:04;8.60;99.90
2647;DHT22;1333;50.958;6.770;2023-02-24T00:19:33;8.50;99.90
2647;DHT22;1333;50.958;6.770;2023-02-24T00:22:00;8.50;99.90
2647;DHT22;1333;50.958;6.770;2023-02-24T00:24:26;8.40;99.90
2647;DHT22;1333;50.958;6.770;2023-02-24T00:26:56;8.40;99.90
2647;DHT22;1333;50.958;6.770;2023-02-24T00:29:24;8.40;99.90
2647;DHT22;1333;50.958;6.770;2023-02-24T00:31:51;8.40;99.90
2647;DHT22;1333;50.958;6.770;2023-02-24T00:34:24;8.40;99.90
2647;DHT22;1333;50.958;6.770;2023-02-24T00:36:49;8.30;99.90
2647;DHT22;1333;50.958;6.770;2023-02-24T00:39:15;8.30;99.90
2647;DHT22;1333;50.958;6.770;2023-02-24T00:41:42;8.30;99.90
2647;DHT22;1333;50.958;6.770;2023-02-24T00:44:10;8.20;99.90
2647;DHT22;1333;50.958;6.770;2023-02-24T00:46:44;8.20;99.90
2647;DHT22;1333;50.958;6.770;2023-02-24T00:49:16;8.20;99.90
2647;DHT22;1333;50.958;6.770;2023-02-24T00:51:45;8.20;99.90
2647;DHT22;1333;50.958;6.770;2023-02-24T00:54:12;8.20;99.90
2647;DHT22;1333;50.958;6.770;2023-02-24T00:56:45;8.10;99.90
2647;DHT22;1333;50.958;6.770;2023-02-24T00:59:12;8.10;99.90
2647;DHT22;1333;50.958;6.770;2023-02-24T01:01:38;8.10;99.90
2647;DHT22;1333;50.958;6.770;2023-02-24T01:04:06;8.10;99.90
2647;DHT22;1333;50.958;6.770;2023-02-24T01:06:37;8.10;99.90
2647;DHT22;1333;50.958;6.770;2023-02-24T01:09:03;8.10;99.90
2647;DHT22;1333;50.958;6.770;2023-02-24T01:11:34;8.00;99.90
2647;DHT22;1333;50.958;6.770;2023-02-24T01:14:21;8.00;99.90
2647;DHT22;1333;50.958;6.770;2023-02-24T01:16:47;8.00;99.90
2647;DHT22;1333;50.958;6.770;2023-02-24T01:19:19;8.00;99.90
2647;DHT22;1333;50.958;6.770;2023-02-24T01:21:46;8.00;99.90
2647;DHT22;1333;50.958;6.770;2023-02-24T01:24:13;7.90;99.90
2647;DHT22;1333;50.958;6.770;2023-02-24T01:26:40;7.90;99.90
2647;DHT22;1333;50.958;6.770;2023-02-24T01:29:06;7.90;99.90
2647;DHT22;1333;50.958;6.770;2023-02-24T01:31:38;7.90;99.90
2647;DHT22;1333;50.958;6.770;2023-02-24T01:34:10;7.80;99.90
2647;DHT22;1333;50.958;6.770;2023-02-24T01:36:38;7.80;99.90
2647;DHT22;1333;50.958;6.770;2023-02-24T01:39:05;7.70;99.90
2647;DHT22;1333;50.958;6.770;2023-02-24T01:41:36;7.70;99.90
2647;DHT22;1333;50.958;6.770;2023-02-24T01:44:56;7.70;99.90
2647;DHT22;1333;50.958;6.770;2023-02-24T01:46:54;7.70;99.90
2647;DHT22;1333;50.958;6.770;2023-02-24T01:49:28;7.70;99.90
2647;DHT22;1333;50.958;6.770;2023-02-24T01:52:03;7.70;99.90
2647;DHT22;1333;50.958;6.770;2023-02-24T01:54:34;7.70;99.90
2647;DHT22;1333;50.958;6.770;2023-02-24T01:57:01;7.70;99.90
2647;DHT22;1333;50.958;6.770;2023-02-24T01:59:30;7.70;99.90
2647;DHT22;1333;50.958;6.770;2023-02-24T02:02:02;7.70;99.90
2647;DHT22;1333;50.958;6.770;2023-02-24T02:07:01;7.60;99.90
2647;DHT22;1333;50.958;6.770;2023-02-24T02:09:26;7.60;99.90
2647;DHT22;1333;50.958;6.770;2023-02-24T02:11:52;7.60;99.90
2647;DHT22;1333;50.958;6.770;2023-02-24T02:14:22;7.60;99.90
2647;DHT22;1333;50.958;6.770;2023-02-24T02:17:58;7.60;99.90
2647;DHT22;1333;50.958;6.770;2023-02-24T02:23:12;7.60;99.90
2647;DHT22;1333;50.958;6.770;2023-02-24T02:26:02;7.50;99.90
2647;DHT22;1333;50.958;6.770;2023-02-24T02:42:37;7.30;99.90
2647;DHT22;1333;50.958;6.770;2023-02-24T02:45:17;7.30;99.90
2647;DHT22;1333;50.958;6.770;2023-02-24T02:47:58;7.20;99.90
2647;DHT22;1333;50.958;6.770;2023-02-24T02:53:03;7.10;99.90
2647;DHT22;1333;50.958;6.770;2023-02-24T02:58:01;7.00;99.90
2647;DHT22;1333;50.958;6.770;2023-02-24T03:00:31;7.00;99.90
2647;DHT22;1333;50.958;6.770;2023-02-24T03:03:05;7.00;99.90
2647;DHT22;1333;50.958;6.770;2023-02-24T03:05:37;7.00;99.90
2647;DHT22;1333;50.958;6.770;2023-02-24T03:08:11;6.90;99.90
2647;DHT22;1333;50.958;6.770;2023-02-24T03:10:40;6.90;99.90
2647;DHT22;1333;50.958;6.770;2023-02-24T03:13:10;6.90;99.90
2647;DHT22;1333;50.958;6.770;2023-02-24T03:15:38;6.80;99.90
2647;DHT22;1333;50.958;6.770;2023-02-24T03:18:14;6.80;99.90
2647;DHT22;1333;50.958;6.770;2023-02-24T03:20:51;6.80;99.90
2647;DHT22;1333;50.958;6.770;2023-02-24T03:23:23;6.80;99.90
2647;DHT22;1333;50.958;6.770;2023-02-24T03:25:59;6.80;99.90
2647;DHT22;1333;50.958;6.770;2023-02-24T03:28:33;6.80;99.90
2647;DHT22;1333;50.958;6.770;2023-02-24T03:31:24;6.80;99.90
2647;DHT22;1333;50.958;6.770;2023-02-24T03:34:01;6.80;99.90
2647;DHT22;1333;50.958;6.770;2023-02-24T03:36:29;6.80;99.90
2647;DHT22;1333;50.958;6.770;2023-02-24T03:38:56;6.80;99.90
2647;DHT22;1333;50.958;6.770;2023-02-24T03:41:25;6.80;99.90
2647;DHT22;1333;50.958;6.770;2023-02-24T03:43:55;6.80;99.90
2647;DHT22;1333;50.958;6.770;2023-02-24T03:46:21;6.80;99.90
2647;DHT22;1333;50.958;6.770;2023-02-24T03:48:51;6.80;99.90
2647;DHT22;1333;50.958;6.770;2023-02-24T03:51:21;6.90;99.90
2647;DHT22;1333;50.958;6.770;2023-02-24T03:59:30;6.90;99.90
2647;DHT22;1333;50.958;6.770;2023-02-24T04:02:05;6.90;99.90
2647;DHT22;1333;50.958;6.770;2023-02-24T04:05:00;6.90;99.90
2647;DHT22;1333;50.958;6.770;2023-02-24T04:07:39;6.80;99.90
2647;DHT22;1333;50.958;6.770;2023-02-24T04:10:18;6.80;99.90
2647;DHT22;1333;50.958;6.770;2023-02-24T04:12:56;6.80;99.90
2647;DHT22;1333;50.958;6.770;2023-02-24T04:15:37;6.80;99.90
2647;DHT22;1333;50.958;6.770;2023-02-24T04:18:20;6.80;99.90
2647;DHT22;1333;50.958;6.770;2023-02-24T04:20:46;6.80;99.90
2647;DHT22;1333;50.958;6.770;2023-02-24T04:23:21;6.80;99.90
2647;DHT22;1333;50.958;6.770;2023-02-24T04:25:50;6.80;99.90
2647;DHT22;1333;50.958;6.770;2023-02-24T04:28:16;6.80;99.90
2647;DHT22;1333;50.958;6.770;2023-02-24T04:30:49;6.80;99.90
2647;DHT22;1333;50.958;6.770;2023-02-24T04:33:16;6.80;99.90
2647;DHT22;1333;50.958;6.770;2023-02-24T04:35:47;6.80;99.90
2647;DHT22;1333;50.958;6.770;2023-02-24T04:38:15;6.80;99.90
2647;DHT22;1333;50.958;6.770;2023-02-24T04:40:40;6.70;99.90
2647;DHT22;1333;50.958;6.770;2023-02-24T04:43:07;6.70;99.90
2647;DHT22;1333;50.958;6.770;2023-02-24T04:45:33;6.70;99.90
2647;DHT22;1333;50.958;6.770;2023-02-24T04:48:00;6.70;99.90
2647;DHT22;1333;50.958;6.770;2023-02-24T04:50:32;6.70;99.90
2647;DHT22;1333;50.958;6.770;2023-02-24T04:53:04;6.70;99.90
2647;DHT22;1333;50.958;6.770;2023-02-24T04:55:36;6.70;99.90
2647;DHT22;1333;50.958;6.770;2023-02-24T04:58:05;6.70;99.90
2647;DHT22;1333;50.958;6.770;2023-02-24T05:00:30;6.70;99.90
2647;DHT22;1333;50.958;6.770;2023-02-24T05:03:01;6.60;99.90
2647;DHT22;1333;50.958;6.770;2023-02-24T05:05:27;6.60;99.90
2647;DHT22;1333;50.958;6.770;2023-02-24T05:07:55;6.50;99.90
2647;DHT22;1333;50.958;6.770;2023-02-24T05:10:22;6.50;99.90
2647;DHT22;1333;50.958;6.770;2023-02-24T05:12:53;6.40;99.90
2647;DHT22;1333;50.958;6.770;2023-02-24T05:15:19;6.30;99.90
2647;DHT22;1333;50.958;6.770;2023-02-24T05:17:44;6.20;99.90
2647;DHT22;1333;50.958;6.770;2023-02-24T05:20:10;6.10;99.90
2647;DHT22;1333;50.958;6.770;2023-02-24T05:22:54;6.00;99.90
2647;DHT22;1333;50.958;6.770;2023-02-24T05:25:21;5.90;99.90
2647;DHT22;1333;50.958;6.770;2023-02-24T05:27:49;5.80;99.90
2647;DHT22;1333;50.958;6.770;2023-02-24T05:30:15;5.80;99.90
2647;DHT22;1333;50.958;6.770;2023-02-24T05:32:41;5.80;99.90
2647;DHT22;1333;50.958;6.770;2023-02-24T05:35:07;5.80;99.90
2647;DHT22;1333;50.958;6.770;2023-02-24T05:37:36;5.80;99.90
2647;DHT22;1333;50.958;6.770;2023-02-24T05:40:03;5.90;99.90
2647;DHT22;1333;50.958;6.770;2023-02-24T05:42:29;5.90;99.90
2647;DHT22;1333;50.958;6.770;2023-02-24T05:45:00;5.90;99.90
2647;DHT22;1333;50.958;6.770;2023-02-24T05:47:25;6.00;99.90
2647;DHT22;1333;50.958;6.770;2023-02-24T05:49:51;6.00;99.90
2647;DHT22;1333;50.958;6.770;2023-02-24T05:52:18;6.00;99.90
2647;DHT22;1333;50.958;6.770;2023-02-24T05:54:44;5.90;99.90
2647;DHT22;1333;50.958;6.770;2023-02-24T05:57:15;5.90;99.90
2647;DHT22;1333;50.958;6.770;2023-02-24T05:59:44;5.80;99.90
2647;DHT22;1333;50.958;6.770;2023-02-24T06:02:14;5.70;99.90
2647;DHT22;1333;50.958;6.770;2023-02-24T06:04:42;5.60;99.90
2647;DHT22;1333;50.958;6.770;2023-02-24T06:07:26;5.50;99.90
2647;DHT22;1333;50.958;6.770;2023-02-24T06:09:56;5.40;99.90
2647;DHT22;1333;50.958;6.770;2023-02-24T06:12:24;5.30;99.90
2647;DHT22;1333;50.958;6.770;2023-02-24T06:14:51;5.20;99.90
2647;DHT22;1333;50.958;6.770;2023-02-24T06:17:18;5.10;99.90
2647;DHT22;1333;50.958;6.770;2023-02-24T06:19:46;5.00;99.90
2647;DHT22;1333;50.958;6.770;2023-02-24T06:22:15;4.90;99.90
2647;DHT22;1333;50.958;6.770;2023-02-24T06:24:41;4.90;99.90
2647;DHT22;1333;50.958;6.770;2023-02-24T06:27:12;4.80;99.90
2647;DHT22;1333;50.958;6.770;2023-02-24T06:29:47;4.80;99.90
2647;DHT22;1333;50.958;6.770;2023-02-24T06:32:17;4.80;99.90
2647;DHT22;1333;50.958;6.770;2023-02-24T06:34:43;4.80;99.90
2647;DHT22;1333;50.958;6.770;2023-02-24T06:37:11;4.80;99.90
2647;DHT22;1333;50.958;6.770;2023-02-24T06:39:38;4.90;99.90
2647;DHT22;1333;50.958;6.770;2023-02-24T06:42:04;4.90;99.90
2647;DHT22;1333;50.958;6.770;2023-02-24T06:44:34;5.00;99.90
2647;DHT22;1333;50.958;6.770;2023-02-24T06:47:01;5.10;99.90
2647;DHT22;1333;50.958;6.770;2023-02-24T06:49:27;5.20;99.90
2647;DHT22;1333;50.958;6.770;2023-02-24T06:51:54;5.30;99.90
2647;DHT22;1333;50.958;6.770;2023-02-24T06:54:21;5.40;99.90
2647;DHT22;1333;50.958;6.770;2023-02-24T06:56:47;5.40;99.90
2647;DHT22;1333;50.958;6.770;2023-02-24T06:59:12;5.50;99.90
2647;DHT22;1333;50.958;6.770;2023-02-24T07:01:48;5.70;99.90
2647;DHT22;1333;50.958;6.770;2023-02-24T07:04:15;5.80;99.90
2647;DHT22;1333;50.958;6.770;2023-02-24T07:06:43;5.90;99.90
2647;DHT22;1333;50.958;6.770;2023-02-24T07:09:11;6.00;99.90
2647;DHT22;1333;50.958;6.770;2023-02-24T07:11:42;6.20;99.90
2647;DHT22;1333;50.958;6.770;2023-02-24T07:14:09;6.30;99.90
2647;DHT22;1333;50.958;6.770;2023-02-24T07:16:36;6.40;99.90
2647;DHT22;1333;50.958;6.770;2023-02-24T07:19:04;6.40;99.90
2647;DHT22;1333;50.958;6.770;2023-02-24T07:21:34;6.50;99.90
2647;DHT22;1333;50.958;6.770;2023-02-24T07:24:05;6.50;99.90
2647;DHT22;1333;50.958;6.770;2023-02-24T07:26:31;6.50;99.90
2647;DHT22;1333;50.958;6.770;2023-02-24T07:28:58;6.60;99.90
2647;DHT22;1333;50.958;6.770;2023-02-24T07:31:24;6.60;99.90
2647;DHT22;1333;50.958;6.770;2023-02-24T07:33:54;6.70;99.90
2647;DHT22;1333;50.958;6.770;2023-02-24T07:36:22;6.70;99.90
2647;DHT22;1333;50.958;6.770;2023-02-24T07:38:52;6.70;99.90
2647;DHT22;1333;50.958;6.770;2023-02-24T07:41:19;6.70;99.90
2647;DHT22;1333;50.958;6.770;2023-02-24T07:43:50;6.80;99.90
2647;DHT22;1333;50.958;6.770;2023-02-24T07:46:19;6.80;99.90
2647;DHT22;1333;50.958;6.770;2023-02-24T07:48:44;6.90;99.90
2647;DHT22;1333;50.958;6.770;2023-02-24T07:51:13;6.90;99.90
2647;DHT22;1333;50.958;6.770;2023-02-24T07:53:42;7.00;99.90
2647;DHT22;1333;50.958;6.770;2023-02-24T07:56:09;7.00;99.90
2647;DHT22;1333;50.958;6.770;2023-02-24T07:58:39;7.00;99.90
2647;DHT22;1333;50.958;6.770;2023-02-24T08:01:06;7.00;99.90
2647;DHT22;1333;50.958;6.770;2023-02-24T08:03:36;7.00;99.90
2647;DHT22;1333;50.958;6.770;2023-02-24T08:06:08;6.90;99.90
2647;DHT22;1333;50.958;6.770;2023-02-24T08:08:43;6.90;99.90
2647;DHT22;1333;50.958;6.770;2023-02-24T08:11:26;6.90;99.90
2647;DHT22;1333;50.958;6.770;2023-02-24T08:14:03;6.90;99.90
2647;DHT22;1333;50.958;6.770;2023-02-24T08:16:35;6.90;99.90
2647;DHT22;1333;50.958;6.770;2023-02-24T08:19:11;6.80;99.90
2647;DHT22;1333;50.958;6.770;2023-02-24T08:21:41;6.80;99.90
2647;DHT22;1333;50.958;6.770;2023-02-24T08:24:14;7.10;99.90
2647;DHT22;1333;50.958;6.770;2023-02-24T08:26:47;7.30;99.90
2647;DHT22;1333;50.958;6.770;2023-02-24T08:29:35;7.60;99.90
2647;DHT22;1333;50.958;6.770;2023-02-24T08:32:07;7.80;99.90
2647;DHT22;1333;50.958;6.770;2023-02-24T08:34:37;7.90;99.90
2647;DHT22;1333;50.958;6.770;2023-02-24T08:37:03;7.90;99.90
2647;DHT22;1333;50.958;6.770;2023-02-24T08:39:29;8.10;99.90
2647;DHT22;1333;50.958;6.770;2023-02-24T08:41:58;8.20;99.90
2647;DHT22;1333;50.958;6.770;2023-02-24T08:44:24;8.40;99.90
2647;DHT22;1333;50.958;6.770;2023-02-24T08:46:52;8.40;99.90
2647;DHT22;1333;50.958;6.770;2023-02-24T08:49:19;8.20;99.90
2647;DHT22;1333;50.958;6.770;2023-02-24T08:51:47;8.30;99.90
2647;DHT22;1333;50.958;6.770;2023-02-24T08:54:15;8.00;99.90
2647;DHT22;1333;50.958;6.770;2023-02-24T08:56:46;8.00;99.90
2647;DHT22;1333;50.958;6.770;2023-02-24T08:59:22;8.00;99.90
2647;DHT22;1333;50.958;6.770;2023-02-24T09:02:07;8.10;99.90
2647;DHT22;1333;50.958;6.770;2023-02-24T09:04:50;8.30;99.90
2647;DHT22;1333;50.958;6.770;2023-02-24T09:07:25;8.40;99.90
2647;DHT22;1333;50.958;6.770;2023-02-24T09:09:52;8.50;99.90
2647;DHT22;1333;50.958;6.770;2023-02-24T09:12:22;8.60;99.90
2647;DHT22;1333;50.958;6.770;2023-02-24T09:14:58;8.60;99.90
2647;DHT22;1333;50.958;6.770;2023-02-24T09:17:28;8.60;99.90
2647;DHT22;1333;50.958;6.770;2023-02-24T09:20:22;8.60;99.90
2647;DHT22;1333;50.958;6.770;2023-02-24T09:23:06;8.70;99.90
2647;DHT22;1333;50.958;6.770;2023-02-24T09:25:35;8.90;99.90
2647;DHT22;1333;50.958;6.770;2023-02-24T09:28:22;9.00;99.90
2647;DHT22;1333;50.958;6.770;2023-02-24T09:30:56;9.20;99.90
2647;DHT22;1333;50.958;6.770;2023-02-24T09:33:28;9.40;99.90
2647;DHT22;1333;50.958;6.770;2023-02-24T09:36:03;9.60;99.90
2647;DHT22;1333;50.958;6.770;2023-02-24T09:41:47;10.00;99.90
2647;DHT22;1333;50.958;6.770;2023-02-24T09:44:48;10.20;99.90
2647;DHT22;1333;50.958;6.770;2023-02-24T09:52:51;10.10;99.90
2647;DHT22;1333;50.958;6.770;2023-02-24T09:55:26;9.90;99.90
2647;DHT22;1333;50.958;6.770;2023-02-24T09:58:19;10.10;99.90
2647;DHT22;1333;50.958;6.770;2023-02-24T10:01:18;10.20;99.90
2647;DHT22;1333;50.958;6.770;2023-02-24T10:06:44;10.20;99.90
2647;DHT22;1333;50.958;6.770;2023-02-24T10:12:11;10.60;99.90
2647;DHT22;1333;50.958;6.770;2023-02-24T10:14:57;10.90;99.90
2647;DHT22;1333;50.958;6.770;2023-02-24T10:17:48;11.10;99.90
2647;DHT22;1333;50.958;6.770;2023-02-24T10:20:19;11.10;99.90
2647;DHT22;1333;50.958;6.770;2023-02-24T10:23:28;11.20;99.90
2647;DHT22;1333;50.958;6.770;2023-02-24T10:26:10;11.10;99.90
2647;DHT22;1333;50.958;6.770;2023-02-24T10:28:55;10.80;99.90
2647;DHT22;1333;50.958;6.770;2023-02-24T10:31:37;10.50;99.90
2647;DHT22;1333;50.958;6.770;2023-02-24T10:34:18;10.40;99.90
2647;DHT22;1333;50.958;6.770;2023-02-24T10:36:51;10.30;99.90
2647;DHT22;1333;50.958;6.770;2023-02-24T10:39:19;10.20;99.90
2647;DHT22;1333;50.958;6.770;2023-02-24T10:41:51;10.00;99.90
2647;DHT22;1333;50.958;6.770;2023-02-24T10:44:26;9.90;99.90
2647;DHT22;1333;50.958;6.770;2023-02-24T10:47:02;9.70;99.90
2647;DHT22;1333;50.958;6.770;2023-02-24T10:49:46;9.70;99.90
2647;DHT22;1333;50.958;6.770;2023-02-24T10:52:42;9.60;99.90
2647;DHT22;1333;50.958;6.770;2023-02-24T10:55:24;9.50;99.90
2647;DHT22;1333;50.958;6.770;2023-02-24T10:57:55;9.40;99.90
2647;DHT22;1333;50.958;6.770;2023-02-24T11:00:40;9.40;99.90
2647;DHT22;1333;50.958;6.770;2023-02-24T11:03:24;9.20;99.90
2647;DHT22;1333;50.958;6.770;2023-02-24T11:06:01;9.10;99.90
2647;DHT22;1333;50.958;6.770;2023-02-24T11:08:27;9.00;99.90
2647;DHT22;1333;50.958;6.770;2023-02-24T11:11:23;8.90;99.90
2647;DHT22;1333;50.958;6.770;2023-02-24T11:13:55;8.70;99.90
2647;DHT22;1333;50.958;6.770;2023-02-24T11:19:30;8.60;99.90
2647;DHT22;1333;50.958;6.770;2023-02-24T11:21:57;8.40;99.90
2647;DHT22;1333;50.958;6.770;2023-02-24T11:24:22;8.40;99.90
2647;DHT22;1333;50.958;6.770;2023-02-24T11:26:48;8.20;99.90
2647;DHT22;1333;50.958;6.770;2023-02-24T11:35:47;8.10;99.90
2647;DHT22;1333;50.958;6.770;2023-02-24T11:41:22;8.00;99.90
2647;DHT22;1333;50.958;6.770;2023-02-24T11:47:15;7.80;99.90
2647;DHT22;1333;50.958;6.770;2023-02-24T11:49:48;7.50;99.90
2647;DHT22;1333;50.958;6.770;2023-02-24T11:52:25;7.30;99.90
2647;DHT22;1333;50.958;6.770;2023-02-24T11:54:56;7.30;99.90
2647;DHT22;1333;50.958;6.770;2023-02-24T11:57:31;7.40;99.90
2647;DHT22;1333;50.958;6.770;2023-02-24T12:03:01;7.50;99.90
2647;DHT22;1333;50.958;6.770;2023-02-24T12:05:55;7.30;99.90
2647;DHT22;1333;50.958;6.770;2023-02-24T12:08:27;7.30;99.90
2647;DHT22;1333;50.958;6.770;2023-02-24T12:11:02;7.30;99.90
2647;DHT22;1333;50.958;6.770;2023-02-24T12:14:20;7.40;99.90
2647;DHT22;1333;50.958;6.770;2023-02-24T12:16:53;7.20;99.90
2647;DHT22;1333;50.958;6.770;2023-02-24T12:19:30;7.10;99.90
2647;DHT22;1333;50.958;6.770;2023-02-24T12:22:03;7.00;99.90
2647;DHT22;1333;50.958;6.770;2023-02-24T12:24:30;7.10;99.90
2647;DHT22;1333;50.958;6.770;2023-02-24T12:27:30;7.10;99.90
2647;DHT22;1333;50.958;6.770;2023-02-24T12:32:59;7.60;99.90
2647;DHT22;1333;50.958;6.770;2023-02-24T12:41:28;7.80;99.90
2647;DHT22;1333;50.958;6.770;2023-02-24T12:44:06;7.90;99.90
2647;DHT22;1333;50.958;6.770;2023-02-24T12:46:35;7.90;99.90
2647;DHT22;1333;50.958;6.770;2023-02-24T12:49:32;7.80;99.90
2647;DHT22;1333;50.958;6.770;2023-02-24T12:57:29;7.60;99.90
2647;DHT22;1333;50.958;6.770;2023-02-24T13:00:02;7.40;99.90
2647;DHT22;1333;50.958;6.770;2023-02-24T13:05:15;7.30;99.90
2647;DHT22;1333;50.958;6.770;2023-02-24T13:11:05;7.10;99.90
2647;DHT22;1333;50.958;6.770;2023-02-24T13:13:51;7.30;99.90
2647;DHT22;1333;50.958;6.770;2023-02-24T13:16:33;7.30;99.90
2647;DHT22;1333;50.958;6.770;2023-02-24T13:19:19;7.00;99.90
2647;DHT22;1333;50.958;6.770;2023-02-24T13:27:38;7.00;99.90
2647;DHT22;1333;50.958;6.770;2023-02-24T13:30:06;7.10;99.90
2647;DHT22;1333;50.958;6.770;2023-02-24T13:32:59;7.10;99.90
2647;DHT22;1333;50.958;6.770;2023-02-24T13:37:50;7.10;99.90
2647;DHT22;1333;50.958;6.770;2023-02-24T13:42:57;7.10;99.90
2647;DHT22;1333;50.958;6.770;2023-02-24T13:45:32;7.20;99.90
2647;DHT22;1333;50.958;6.770;2023-02-24T13:53:30;7.40;99.90
2647;DHT22;1333;50.958;6.770;2023-02-24T14:02:00;7.70;99.90
2647;DHT22;1333;50.958;6.770;2023-02-24T14:04:34;7.60;99.90
2647;DHT22;1333;50.958;6.770;2023-02-24T14:07:08;7.40;99.90
2647;DHT22;1333;50.958;6.770;2023-02-24T14:09:39;7.40;99.90
2647;DHT22;1333;50.958;6.770;2023-02-24T14:12:17;7.30;99.90
2647;DHT22;1333;50.958;6.770;2023-02-24T14:14:44;7.30;99.90
2647;DHT22;1333;50.958;6.770;2023-02-24T14:17:39;7.30;99.90
2647;DHT22;1333;50.958;6.770;2023-02-24T14:20:21;7.40;99.90
2647;DHT22;1333;50.958;6.770;2023-02-24T14:22:56;7.40;99.90
2647;DHT22;1333;50.958;6.770;2023-02-24T14:25:33;7.50;99.90
2647;DHT22;1333;50.958;6.770;2023-02-24T14:27:59;7.50;99.90
2647;DHT22;1333;50.958;6.770;2023-02-24T14:30:35;7.40;99.90
2647;DHT22;1333;50.958;6.770;2023-02-24T14:33:03;7.40;99.90
2647;DHT22;1333;50.958;6.770;2023-02-24T14:37:54;7.30;99.90
2647;DHT22;1333;50.958;6.770;2023-02-24T14:40:24;7.20;99.90
2647;DHT22;1333;50.958;6.770;2023-02-24T14:42:50;7.30;99.90
2647;DHT22;1333;50.958;6.770;2023-02-24T14:45:19;7.40;99.90
2647;DHT22;1333;50.958;6.770;2023-02-24T14:47:45;7.40;99.90
2647;DHT22;1333;50.958;6.770;2023-02-24T14:50:21;7.40;99.90
2647;DHT22;1333;50.958;6.770;2023-02-24T14:52:52;7.30;99.90
2647;DHT22;1333;50.958;6.770;2023-02-24T14:55:26;7.40;99.90
2647;DHT22;1333;50.958;6.770;2023-02-24T14:58:12;7.50;99.90
2647;DHT22;1333;50.958;6.770;2023-02-24T15:00:47;7.50;99.90
2647;DHT22;1333;50.958;6.770;2023-02-24T15:03:33;7.60;99.90
2647;DHT22;1333;50.958;6.770;2023-02-24T15:06:04;7.50;99.90
2647;DHT22;1333;50.958;6.770;2023-02-24T15:08:36;7.40;99.90
2647;DHT22;1333;50.958;6.770;2023-02-24T15:13:43;7.30;99.90
2647;DHT22;1333;50.958;6.770;2023-02-24T15:18:42;7.20;99.90
2647;DHT22;1333;50.958;6.770;2023-02-24T15:21:36;7.10;99.90
2647;DHT22;1333;50.958;6.770;2023-02-24T15:24:16;7.10;99.90
2647;DHT22;1333;50.958;6.770;2023-02-24T15:26:51;7.00;99.90
2647;DHT22;1333;50.958;6.770;2023-02-24T15:29:22;6.90;99.90
2647;DHT22;1333;50.958;6.770;2023-02-24T15:31:50;6.90;99.90
2647;DHT22;1333;50.958;6.770;2023-02-24T15:36:54;6.80;99.90
2647;DHT22;1333;50.958;6.770;2023-02-24T15:39:23;6.80;99.90
2647;DHT22;1333;50.958;6.770;2023-02-24T15:41:51;6.60;99.90
2647;DHT22;1333;50.958;6.770;2023-02-24T15:44:27;6.60;99.90
2647;DHT22;1333;50.958;6.770;2023-02-24T15:46:54;6.70;99.90
2647;DHT22;1333;50.958;6.770;2023-02-24T15:49:20;6.70;99.90
2647;DHT22;1333;50.958;6.770;2023-02-24T15:51:48;6.80;99.90
2647;DHT22;1333;50.958;6.770;2023-02-24T15:54:17;6.80;99.90
2647;DHT22;1333;50.958;6.770;2023-02-24T15:56:44;6.90;99.90
2647;DHT22;1333;50.958;6.770;2023-02-24T15:59:15;6.90;99.90
2647;DHT22;1333;50.958;6.770;2023-02-24T16:01:40;6.90;99.90
2647;DHT22;1333;50.958;6.770;2023-02-24T16:04:06;7.00;99.90
2647;DHT22;1333;50.958;6.770;2023-02-24T16:06:34;7.00;99.90
2647;DHT22;1333;50.958;6.770;2023-02-24T16:09:07;7.00;99.90
2647;DHT22;1333;50.958;6.770;2023-02-24T16:11:37;7.00;99.90
2647;DHT22;1333;50.958;6.770;2023-02-24T16:14:04;7.00;99.90
2647;DHT22;1333;50.958;6.770;2023-02-24T16:16:30;7.00;99.90
2647;DHT22;1333;50.958;6.770;2023-02-24T16:18:57;6.90;99.90
2647;DHT22;1333;50.958;6.770;2023-02-24T16:21:23;6.80;99.90
2647;DHT22;1333;50.958;6.770;2023-02-24T16:23:48;6.60;99.90
2647;DHT22;1333;50.958;6.770;2023-02-24T16:26:19;6.60;99.90
2647;DHT22;1333;50.958;6.770;2023-02-24T16:28:51;6.60;99.90
2647;DHT22;1333;50.958;6.770;2023-02-24T16:31:17;6.60;99.90
2647;DHT22;1333;50.958;6.770;2023-02-24T16:33:43;6.60;99.90
2647;DHT22;1333;50.958;6.770;2023-02-24T16:36:11;6.60;99.90
2647;DHT22;1333;50.958;6.770;2023-02-24T16:38:37;6.60;99.90
2647;DHT22;1333;50.958;6.770;2023-02-24T16:41:03;6.60;99.90
2647;DHT22;1333;50.958;6.770;2023-02-24T16:43:29;6.60;99.90
2647;DHT22;1333;50.958;6.770;2023-02-24T16:46:00;6.70;99.90
2647;DHT22;1333;50.958;6.770;2023-02-24T16:48:27;6.60;99.90
2647;DHT22;1333;50.958;6.770;2023-02-24T16:50:53;6.60;99.90
2647;DHT22;1333;50.958;6.770;2023-02-24T16:53:21;6.60;99.90
2647;DHT22;1333;50.958;6.770;2023-02-24T16:55:48;6.50;99.90
2647;DHT22;1333;50.958;6.770;2023-02-24T16:58:14;6.50;99.90
2647;DHT22;1333;50.958;6.770;2023-02-24T17:00:43;6.50;99.90
2647;DHT22;1333;50.958;6.770;2023-02-24T17:03:17;6.50;99.90
2647;DHT22;1333;50.958;6.770;2023-02-24T17:05:44;6.50;99.90
2647;DHT22;1333;50.958;6.770;2023-02-24T17:08:10;6.60;99.90
2647;DHT22;1333;50.958;6.770;2023-02-24T17:10:36;6.60;99.90
2647;DHT22;1333;50.958;6.770;2023-02-24T17:13:05;6.50;99.90
2647;DHT22;1333;50.958;6.770;2023-02-24T17:15:31;6.50;99.90
2647;DHT22;1333;50.958;6.770;2023-02-24T17:17:57;6.50;99.90
2647;DHT22;1333;50.958;6.770;2023-02-24T17:20:22;6.50;99.90
2647;DHT22;1333;50.958;6.770;2023-02-24T17:22:48;6.50;99.90
2647;DHT22;1333;50.958;6.770;2023-02-24T17:25:22;6.50;99.90
2647;DHT22;1333;50.958;6.770;2023-02-24T17:27:48;6.50;99.90
2647;DHT22;1333;50.958;6.770;2023-02-24T17:30:17;6.60;99.90
2647;DHT22;1333;50.958;6.770;2023-02-24T17:32:43;6.50;99.90
2647;DHT22;1333;50.958;6.770;2023-02-24T17:35:08;6.50;99.90
2647;DHT22;1333;50.958;6.770;2023-02-24T17:37:34;6.60;99.90
2647;DHT22;1333;50.958;6.770;2023-02-24T17:40:00;6.60;99.90
2647;DHT22;1333;50.958;6.770;2023-02-24T17:42:25;6.50;99.90
2647;DHT22;1333;50.958;6.770;2023-02-24T17:44:51;6.40;99.90
2647;DHT22;1333;50.958;6.770;2023-02-24T17:47:17;6.40;99.90
2647;DHT22;1333;50.958;6.770;2023-02-24T17:49:42;6.40;99.90
2647;DHT22;1333;50.958;6.770;2023-02-24T17:52:08;6.50;99.90
2647;DHT22;1333;50.958;6.770;2023-02-24T17:54:33;6.50;99.90
2647;DHT22;1333;50.958;6.770;2023-02-24T17:56:59;6.40;99.90
2647;DHT22;1333;50.958;6.770;2023-02-24T17:59:24;6.30;99.90
2647;DHT22;1333;50.958;6.770;2023-02-24T18:01:50;6.20;99.90
2647;DHT22;1333;50.958;6.770;2023-02-24T18:04:15;6.10;99.90
2647;DHT22;1333;50.958;6.770;2023-02-24T18:06:43;6.10;99.90
2647;DHT22;1333;50.958;6.770;2023-02-24T18:09:08;6.00;99.90
2647;DHT22;1333;50.958;6.770;2023-02-24T18:11:34;5.90;99.90
2647;DHT22;1333;50.958;6.770;2023-02-24T18:14:00;5.90;99.90
2647;DHT22;1333;50.958;6.770;2023-02-24T18:16:26;5.90;99.90
2647;DHT22;1333;50.958;6.770;2023-02-24T18:18:52;6.00;99.90
2647;DHT22;1333;50.958;6.770;2023-02-24T18:21:18;6.00;99.90
2647;DHT22;1333;50.958;6.770;2023-02-24T18:23:44;6.10;99.90
2647;DHT22;1333;50.958;6.770;2023-02-24T18:26:10;6.10;99.90
2647;DHT22;1333;50.958;6.770;2023-02-24T18:28:36;6.20;99.90
2647;DHT22;1333;50.958;6.770;2023-02-24T18:31:12;6.30;99.90
2647;DHT22;1333;50.958;6.770;2023-02-24T18:33:38;6.40;99.90
2647;DHT22;1333;50.958;6.770;2023-02-24T18:36:04;6.40;99.90
2647;DHT22;1333;50.958;6.770;2023-02-24T18:38:30;6.50;99.90
2647;DHT22;1333;50.958;6.770;2023-02-24T18:41:03;6.60;99.90
2647;DHT22;1333;50.958;6.770;2023-02-24T18:43:30;6.60;99.90